Spar Draco — LAFO6 — position and weather

sailwx.info

Track history (hours):
 
Tides and Currents Weather Stations Pressure Air Temp Water Temp Dewpoint Dewpoint Depression Visibility Wind Speed Wind Dir Waves Ship Positions

Spar Draco

Last reported at 2015-Mar-30 12:33 UTC. Time now 2015-Apr-01 21:19 UTC.
Position N 57°58' W 006°03'.

Length 190 m; draft 7.4 m.

Type: Cargo ship. MMSI: 257799000.

Date/timePositionNaut miles runAvg speedWind from/ knotsBaromVisibWave heightAir tempDewpointWater temp
2015-Mar-30 12:33N 57°58' W 006°03'132 7.7
2015-Mar-29 19:32N 55°51' W 007°05'6 5.7
2015-Mar-29 18:33N 55°47' W 006°58'5 5.5
2015-Mar-29 17:33N 55°43' W 006°52'5 4.9
2015-Mar-29 16:33N 55°39' W 006°46'5 5.4
2015-Mar-29 15:33N 55°35' W 006°39'7 6.9
2015-Mar-29 14:33N 55°31' W 006°31'8 7.9
2015-Mar-29 13:33N 55°26' W 006°19'10 9.6
2015-Mar-29 12:33N 55°25' W 006°03'1212.0
2015-Mar-29 11:33N 55°15' W 005°51'1612.6
2015-Mar-29 10:18N 55°01' W 005°37'912.6
2015-Mar-29 09:33N 54°53' W 005°28'1212.5
2015-Mar-29 08:33N 54°43' W 005°17'1313.1
2015-Mar-29 07:33N 54°32' W 005°04'1211.9
2015-Mar-29 06:33N 54°20' W 005°05'1211.6
2015-Mar-29 05:33N 54°08' W 005°07'  
2015-Mar-25 15:15N 39°06' W 009°51'6 7.4
2015-Mar-25 14:25N 38°60' W 009°51'6 7.4
2015-Mar-25 13:32N 38°53' W 009°52'7 7.5
2015-Mar-25 12:32N 38°46' W 009°51'7 6.8
2015-Mar-25 11:31N 38°39' W 009°50'6 6.7
2015-Mar-25 10:33N 38°33' W 009°48'6 5.8
2015-Mar-25 09:32N 38°27' W 009°47'5 5.5
2015-Mar-25 08:33N 38°22' W 009°45'5 5.0
2015-Mar-25 07:32N 38°17' W 009°43'3 3.4
2015-Mar-25 06:33N 38°14' W 009°42'3 3.5
2015-Mar-25 05:33N 38°10' W 009°41'3 3.2
2015-Mar-25 04:33N 38°07' W 009°41'3 2.9
2015-Mar-25 03:33N 38°04' W 009°40'3 2.7
2015-Mar-25 02:33N 38°01' W 009°39'2 2.4
2015-Mar-25 01:33N 37°59' W 009°38'3 3.0
2015-Mar-25 00:32N 37°56' W 009°38'3 3.2
2015-Mar-24 23:33N 37°53' W 009°36'3 2.7
2015-Mar-24 22:33N 37°51' W 009°38'2 1.8
2015-Mar-24 21:33N 37°49' W 009°38'3 2.7
2015-Mar-24 20:33N 37°48' W 009°35'2 2.4
2015-Mar-24 19:33N 37°45' W 009°34'2 2.3
2015-Mar-24 18:33N 37°43' W 009°33'2 2.4
2015-Mar-24 17:33N 37°41' W 009°33'3 2.7
2015-Mar-24 16:33N 37°38' W 009°32'3 2.9
2015-Mar-24 15:33N 37°35' W 009°31'3 3.1
2015-Mar-24 14:33N 37°32' W 009°30'59 3.6
2015-Mar-23 22:09N 36°41' W 008°53'5 8.3
2015-Mar-23 21:33N 36°40' W 008°47'9 8.4
2015-Mar-23 20:32N 36°36' W 008°38'  
2015-Mar-20 16:34N 35°58' W 005°34'8 7.6
2015-Mar-20 15:34N 36°01' W 005°26'6 5.6
2015-Mar-20 14:33N 36°06' W 005°23'1 1.5
2015-Mar-20 13:33N 36°07' W 005°22'  
Track history (hours):
 
Tides and Currents Weather Stations Pressure Air Temp Water Temp Dewpoint Dewpoint Depression Visibility Wind Speed Wind Dir Waves Ship Positions

Spar Draco

Last reported at 2015-Mar-30 12:33 UTC. Time now 2015-Apr-01 21:19 UTC.
Position N 57°58' W 006°03'.

Length 190 m; draft 7.4 m.

Type: Cargo ship. MMSI: 257799000.

Date/timePositionNaut miles runAvg speedWind from/ knotsBaromVisibWave heightAir tempDewpointWater temp
2015-Mar-30 12:33N 57°58' W 006°03'132 7.7
2015-Mar-29 19:32N 55°51' W 007°05'6 5.7
2015-Mar-29 18:33N 55°47' W 006°58'5 5.5
2015-Mar-29 17:33N 55°43' W 006°52'5 4.9
2015-Mar-29 16:33N 55°39' W 006°46'5 5.4
2015-Mar-29 15:33N 55°35' W 006°39'7 6.9
2015-Mar-29 14:33N 55°31' W 006°31'8 7.9
2015-Mar-29 13:33N 55°26' W 006°19'10 9.6
2015-Mar-29 12:33N 55°25' W 006°03'1212.0
2015-Mar-29 11:33N 55°15' W 005°51'1612.6
2015-Mar-29 10:18N 55°01' W 005°37'912.6
2015-Mar-29 09:33N 54°53' W 005°28'1212.5
2015-Mar-29 08:33N 54°43' W 005°17'1313.1
2015-Mar-29 07:33N 54°32' W 005°04'1211.9
2015-Mar-29 06:33N 54°20' W 005°05'1211.6
2015-Mar-29 05:33N 54°08' W 005°07'  
2015-Mar-25 15:15N 39°06' W 009°51'6 7.4
2015-Mar-25 14:25N 38°60' W 009°51'6 7.4
2015-Mar-25 13:32N 38°53' W 009°52'7 7.5
2015-Mar-25 12:32N 38°46' W 009°51'7 6.8
2015-Mar-25 11:31N 38°39' W 009°50'6 6.7
2015-Mar-25 10:33N 38°33' W 009°48'6 5.8
2015-Mar-25 09:32N 38°27' W 009°47'5 5.5
2015-Mar-25 08:33N 38°22' W 009°45'5 5.0
2015-Mar-25 07:32N 38°17' W 009°43'3 3.4
2015-Mar-25 06:33N 38°14' W 009°42'3 3.5
2015-Mar-25 05:33N 38°10' W 009°41'3 3.2
2015-Mar-25 04:33N 38°07' W 009°41'3 2.9
2015-Mar-25 03:33N 38°04' W 009°40'3 2.7
2015-Mar-25 02:33N 38°01' W 009°39'2 2.4
2015-Mar-25 01:33N 37°59' W 009°38'3 3.0
2015-Mar-25 00:32N 37°56' W 009°38'3 3.2
2015-Mar-24 23:33N 37°53' W 009°36'3 2.7
2015-Mar-24 22:33N 37°51' W 009°38'2 1.8
2015-Mar-24 21:33N 37°49' W 009°38'3 2.7
2015-Mar-24 20:33N 37°48' W 009°35'2 2.4
2015-Mar-24 19:33N 37°45' W 009°34'2 2.3
2015-Mar-24 18:33N 37°43' W 009°33'2 2.4
2015-Mar-24 17:33N 37°41' W 009°33'3 2.7
2015-Mar-24 16:33N 37°38' W 009°32'3 2.9
2015-Mar-24 15:33N 37°35' W 009°31'3 3.1
2015-Mar-24 14:33N 37°32' W 009°30'59 3.6
2015-Mar-23 22:09N 36°41' W 008°53'5 8.3
2015-Mar-23 21:33N 36°40' W 008°47'9 8.4
2015-Mar-23 20:32N 36°36' W 008°38'  
2015-Mar-20 16:34N 35°58' W 005°34'8 7.6
2015-Mar-20 15:34N 36°01' W 005°26'6 5.6
2015-Mar-20 14:33N 36°06' W 005°23'1 1.5
2015-Mar-20 13:33N 36°07' W 005°22'  

Dump ship's entire track history